Time;durP1;ratioP1;P1;durP2;ratioP2;P2;SDS_P1;SDS_P2;PMS_P1;PMS_P2;Temp;Humidity;BMP_temperature;BMP_pressure;BME280_temperature;BME280_humidity;BME280_pressure;Samples;Min_cycle;Max_cycle;Signal;HPM_P1;HPM_P2
2022/06/11 00:00:07;;;;;;;13.20;7.30;;;;;;;17.93;64.83;99301.75;105124;1285;99331;-69
2022/06/11 00:02:54;;;;;;;17.70;8.00;;;;;;;17.89;65.04;99304.08;105021;1285;115283;-68
2022/06/11 00:05:22;;;;;;;15.50;8.20;;;;;;;17.87;64.79;99301.75;105056;1285;99269;-70
2022/06/11 00:07:51;;;;;;;16.40;8.00;;;;;;;17.84;65.13;99303.59;105051;1285;108245;-70
2022/06/11 00:10:20;;;;;;;17.70;9.00;;;;;;;17.81;65.01;99309.74;105079;1285;99264;-69
2022/06/11 00:12:50;;;;;;;15.90;8.80;;;;;;;17.75;65.03;99311.16;105068;1284;99268;-68
2022/06/11 00:15:18;;;;;;;15.60;8.50;;;;;;;17.73;65.10;99315.38;104999;1285;113389;-68
2022/06/11 00:17:46;;;;;;;16.20;8.90;;;;;;;17.70;65.09;99314.41;105149;1285;99248;-66
2022/06/11 00:20:15;;;;;;;16.80;8.70;;;;;;;17.67;65.31;99314.69;105179;1284;107827;-67
2022/06/11 00:22:43;;;;;;;18.60;9.10;;;;;;;17.65;65.23;99315.60;105140;1285;99198;-67
2022/06/11 00:25:11;;;;;;;17.60;8.60;;;;;;;17.64;65.26;99320.89;105123;1284;97776;-69
2022/06/11 00:27:39;;;;;;;16.70;8.50;;;;;;;17.59;65.33;99333.02;105118;1285;113416;-65
2022/06/11 00:30:11;;;;;;;16.80;9.00;;;;;;;17.52;65.33;99344.50;105128;1285;96637;-67
2022/06/11 00:32:40;;;;;;;15.70;8.40;;;;;;;17.50;65.38;99356.31;105017;1285;109259;-70
2022/06/11 00:35:13;;;;;;;18.30;9.70;;;;;;;17.49;65.32;99371.70;105084;1285;97700;-69
2022/06/11 00:37:44;;;;;;;17.60;9.00;;;;;;;17.42;65.30;99376.21;105123;1285;99357;-69
2022/06/11 00:40:18;;;;;;;17.40;9.30;;;;;;;17.36;65.22;99381.78;105062;1285;113205;-66
2022/06/11 00:42:48;;;;;;;18.20;10.10;;;;;;;17.36;65.56;99392.58;104945;1285;99359;-69
2022/06/11 00:45:40;;;;;;;17.70;9.00;;;;;;;17.38;65.40;99400.85;104687;1287;107227;-69
2022/06/11 00:48:30;;;;;;;16.80;9.30;;;;;;;17.34;65.58;99405.48;104849;1285;99367;-68
2022/06/11 00:51:03;;;;;;;16.70;9.50;;;;;;;17.29;65.63;99413.34;105014;1285;99273;-68
2022/06/11 00:53:35;;;;;;;18.60;9.50;;;;;;;17.24;65.57;99414.00;104993;1285;113414;-69
2022/06/11 00:56:10;;;;;;;16.20;9.40;;;;;;;17.20;65.64;99415.77;104979;1286;99201;-69
2022/06/11 00:58:45;;;;;;;18.00;9.90;;;;;;;17.20;65.92;99420.45;105042;1287;107790;-69
2022/06/11 01:01:16;;;;;;;18.20;10.40;;;;;;;17.20;66.01;99419.88;105127;1285;99257;-69
2022/06/11 01:03:47;;;;;;;18.10;10.70;;;;;;;17.23;65.98;99419.25;105037;1285;99264;-69
2022/06/11 01:06:29;;;;;;;21.60;11.50;;;;;;;17.27;66.01;99415.31;105019;1285;114581;-70
2022/06/11 01:09:12;;;;;;;18.00;10.00;;;;;;;17.30;66.17;99417.23;105101;1285;99217;-70
2022/06/11 01:12:12;;;;;;;19.50;10.60;;;;;;;17.34;66.41;99420.59;105057;1285;108113;-68
2022/06/11 01:14:58;;;;;;;21.60;10.90;;;;;;;17.38;66.32;99422.30;105061;1285;99224;-69
2022/06/11 01:17:52;;;;;;;17.40;9.80;;;;;;;17.42;66.25;99419.66;105115;1285;99229;-69
2022/06/11 01:20:46;;;;;;;20.30;10.60;;;;;;;17.45;66.31;99416.48;105121;1284;113397;-69
2022/06/11 01:23:25;;;;;;;19.20;10.40;;;;;;;17.50;66.13;99417.59;104672;1287;99375;-68
2022/06/11 01:26:15;;;;;;;19.50;10.40;;;;;;;17.54;66.25;99412.58;105061;1285;108808;-70
2022/06/11 01:28:51;;;;;;;16.90;10.00;;;;;;;17.57;66.44;99409.26;105031;1285;99228;-69
2022/06/11 01:31:41;;;;;;;20.40;11.60;;;;;;;17.59;66.42;99406.70;105102;1285;99217;-68
2022/06/11 01:34:35;;;;;;;19.80;10.70;;;;;;;17.62;66.36;99398.71;105116;1284;114132;-68
2022/06/11 01:37:15;;;;;;;19.20;10.90;;;;;;;17.65;66.37;99388.05;105163;1285;98979;-67
2022/06/11 01:39:56;;;;;;;19.50;10.00;;;;;;;17.67;66.46;99382.67;105037;1287;108368;-68
2022/06/11 01:42:39;;;;;;;19.90;10.60;;;;;;;17.68;66.27;99375.69;105136;1285;99286;-70
2022/06/11 01:45:33;;;;;;;19.90;10.40;;;;;;;17.68;66.37;99366.77;105098;1287;99980;-68
2022/06/11 01:48:06;;;;;;;17.40;9.40;;;;;;;17.70;66.52;99353.48;104824;1285;113496;-69
2022/06/11 01:50:40;;;;;;;18.00;10.20;;;;;;;17.72;66.61;99348.59;105010;1285;99270;-70
2022/06/11 01:53:17;;;;;;;;;;;;;;;17.72;66.33;99348.09;104992;1285;106022;-69
2022/06/11 01:56:14;;;;;;;18.70;9.80;;;;;;;17.68;66.45;99341.63;105135;1285;99348;-70
2022/06/11 01:58:54;;;;;;;19.70;9.80;;;;;;;17.67;66.39;99324.58;105108;1285;99354;-69
2022/06/11 02:01:37;;;;;;;16.90;9.80;;;;;;;17.66;66.42;99316.55;105059;1285;113382;-70
2022/06/11 02:04:38;;;;;;;16.60;9.30;;;;;;;17.64;66.48;99307.09;105146;1285;99380;-69
2022/06/11 02:07:18;;;;;;;17.60;9.40;;;;;;;17.63;66.57;99295.56;105144;1285;108431;-67
2022/06/11 02:10:15;;;;;;;19.00;9.60;;;;;;;17.61;66.56;99297.46;105145;1284;99298;-69
2022/06/11 02:13:17;;;;;;;18.50;10.20;;;;;;;17.61;66.66;99306.88;105251;1284;99251;-68
2022/06/11 02:16:16;;;;;;;18.10;10.10;;;;;;;17.59;66.54;99315.23;105022;1287;112540;-69
2022/06/11 02:18:50;;;;;;;19.30;9.70;;;;;;;17.57;66.57;99317.61;105117;1285;99263;-70
2022/06/11 02:21:28;;;;;;;18.70;10.30;;;;;;;17.55;66.72;99319.02;105097;1285;107832;-70
2022/06/11 02:24:10;;;;;;;18.80;10.70;;;;;;;17.54;66.81;99322.33;105141;1285;96523;-69
2022/06/11 02:26:50;;;;;;;19.40;11.30;;;;;;;17.53;66.71;99321.73;105165;1285;99329;-68
2022/06/11 02:29:23;;;;;;;20.20;11.70;;;;;;;17.54;66.79;99317.73;105138;1284;112372;-68
2022/06/11 02:32:02;;;;;;;20.90;12.00;;;;;;;17.53;66.70;99319.38;105162;1285;99193;-69
2022/06/11 02:34:36;;;;;;;22.40;12.70;;;;;;;17.53;66.78;99312.14;105113;1286;108535;-70
2022/06/11 02:37:17;;;;;;;21.40;12.90;;;;;;;17.52;66.72;99305.40;105132;1285;99117;-68
2022/06/11 02:39:47;;;;;;;25.00;13.70;;;;;;;17.49;66.95;99302.95;105025;1287;99351;-68
2022/06/11 02:42:19;;;;;;;24.50;13.50;;;;;;;17.46;66.90;99303.23;105045;1285;113382;-71
2022/06/11 02:44:48;;;;;;;21.00;12.00;;;;;;;17.42;66.90;99305.26;105126;1285;99247;-70
2022/06/11 02:47:19;;;;;;;20.90;11.80;;;;;;;17.38;66.84;99310.12;105016;1287;106459;-69
2022/06/11 02:49:50;;;;;;;21.60;12.90;;;;;;;17.36;66.92;99315.84;105011;1287;99255;-69
2022/06/11 02:52:23;;;;;;;20.50;12.20;;;;;;;17.36;67.01;99315.55;104895;1287;99680;-69
2022/06/11 02:54:53;;;;;;;20.30;12.70;;;;;;;17.36;67.03;99313.58;105065;1285;112626;-69
2022/06/11 02:57:29;;;;;;;26.00;12.70;;;;;;;17.34;67.07;99313.02;105102;1285;98989;-69
2022/06/11 02:59:59;;;;;;;21.00;12.40;;;;;;;17.33;67.10;99317.84;104931;1285;107723;-69
2022/06/11 03:02:31;;;;;;;22.90;13.10;;;;;;;17.30;67.05;99317.02;105053;1285;99265;-67
2022/06/11 03:05:01;;;;;;;19.90;11.80;;;;;;;17.28;67.03;99322.20;105151;1285;99248;-70
2022/06/11 03:07:31;;;;;;;21.40;13.10;;;;;;;17.28;67.11;99329.05;105177;1285;113706;-69
2022/06/11 03:09:59;;;;;;;20.50;11.30;;;;;;;17.28;67.26;99332.14;105141;1285;99329;-68
2022/06/11 03:12:28;;;;;;;19.80;11.10;;;;;;;17.26;67.31;99336.69;105155;1285;108329;-69
2022/06/11 03:14:56;;;;;;;19.40;11.40;;;;;;;17.27;67.31;99343.83;104970;1285;99244;-70
2022/06/11 03:17:25;;;;;;;21.70;11.40;;;;;;;17.26;67.28;99350.33;105109;1285;99231;-70
2022/06/11 03:19:55;;;;;;;19.40;11.30;;;;;;;17.25;67.26;99349.04;105128;1285;113380;-69
2022/06/11 03:22:24;;;;;;;21.10;11.50;;;;;;;17.24;67.30;99352.55;105116;1287;99255;-69
2022/06/11 03:24:55;;;;;;;19.30;11.80;;;;;;;17.23;67.49;99358.33;105132;1285;108446;-68
2022/06/11 03:27:25;;;;;;;21.90;12.00;;;;;;;17.25;67.19;99361.41;105154;1285;97557;-70
2022/06/11 03:29:53;;;;;;;19.10;11.50;;;;;;;17.25;67.30;99359.25;105085;1285;99777;-70
2022/06/11 03:32:24;;;;;;;18.60;11.00;;;;;;;17.24;67.44;99355.19;105169;1285;113605;-70
2022/06/11 03:34:52;;;;;;;21.30;11.70;;;;;;;17.24;67.55;99358.23;105198;1285;99365;-69
2022/06/11 03:37:21;;;;;;;19.00;10.80;;;;;;;17.24;67.55;99368.25;105073;1287;108196;-70
2022/06/11 03:39:52;;;;;;;19.20;11.70;;;;;;;17.23;67.39;99369.30;105089;1285;99743;-68
2022/06/11 03:42:20;;;;;;;22.20;11.60;;;;;;;17.20;67.56;99369.36;104931;1286;99250;-69
2022/06/11 03:44:47;;;;;;;20.40;12.30;;;;;;;17.17;67.41;99373.39;105048;1285;113658;-68
2022/06/11 03:47:17;;;;;;;21.20;11.50;;;;;;;17.16;67.40;99373.56;105105;1285;99257;-70
2022/06/11 03:49:46;;;;;;;23.80;11.00;;;;;;;17.16;67.53;99371.08;105054;1285;108422;-69
2022/06/11 03:52:15;;;;;;;21.50;13.00;;;;;;;17.16;67.73;99375.33;105015;1287;99434;-69
2022/06/11 03:54:47;;;;;;;18.60;10.80;;;;;;;17.15;67.58;99373.48;105058;1287;99225;-69
2022/06/11 03:57:15;;;;;;;24.80;11.80;;;;;;;17.10;67.73;99379.77;104036;1287;1327953;-69
2022/06/11 03:59:45;;;;;;;22.50;12.70;;;;;;;17.10;67.80;99376.73;105057;1287;99083;-69
2022/06/11 04:02:14;;;;;;;20.70;12.90;;;;;;;17.07;67.50;99382.80;105056;1287;107770;-71
2022/06/11 04:04:48;;;;;;;21.40;11.10;;;;;;;17.02;67.64;99386.09;105000;1287;99140;-71
2022/06/11 04:07:18;;;;;;;18.70;11.60;;;;;;;16.97;67.64;99383.17;105063;1287;99819;-71
2022/06/11 04:09:48;;;;;;;19.30;11.80;;;;;;;16.94;67.86;99381.16;105067;1285;112677;-70
2022/06/11 04:12:16;;;;;;;20.80;12.50;;;;;;;16.93;67.86;99380.87;105121;1285;99233;-68
2022/06/11 04:14:49;;;;;;;22.00;12.50;;;;;;;16.90;67.92;99383.86;104784;1287;108276;-68
2022/06/11 04:17:24;;;;;;;20.00;12.80;;;;;;;16.89;67.92;99385.33;105161;1285;99244;-69
2022/06/11 04:19:54;;;;;;;19.00;11.80;;;;;;;16.89;67.86;99389.09;105027;1285;99450;-67
2022/06/11 04:22:22;;;;;;;20.20;12.10;;;;;;;16.90;68.12;99387.23;105092;1285;112954;-69
2022/06/11 04:24:51;;;;;;;20.70;12.40;;;;;;;16.93;68.03;99387.16;105057;1285;98451;-68
2022/06/11 04:27:20;;;;;;;22.40;13.20;;;;;;;16.95;68.02;99387.80;105045;1285;108924;-70
2022/06/11 04:29:53;;;;;;;21.80;11.90;;;;;;;16.96;67.95;99388.65;105006;1287;100396;-67
2022/06/11 04:32:24;;;;;;;20.50;11.50;;;;;;;16.98;68.08;99389.91;105179;1285;99317;-67
2022/06/11 04:34:53;;;;;;;18.40;11.20;;;;;;;16.98;68.19;99392.08;105109;1285;113154;-70
2022/06/11 04:37:25;;;;;;;19.20;12.50;;;;;;;17.01;68.24;99391.63;105022;1287;99961;-69
2022/06/11 04:39:55;;;;;;;22.00;11.80;;;;;;;17.01;68.13;99390.50;105078;1285;109197;-69
2022/06/11 04:42:25;;;;;;;19.70;11.40;;;;;;;17.01;68.07;99389.64;105081;1283;99338;-68
2022/06/11 04:44:53;;;;;;;18.20;10.90;;;;;;;17.02;68.20;99391.70;105114;1285;99320;-70
2022/06/11 04:47:25;;;;;;;19.20;11.80;;;;;;;17.04;68.40;99389.22;105127;1285;112875;-69
2022/06/11 04:49:56;;;;;;;19.80;11.60;;;;;;;17.07;68.34;99395.02;105011;1287;98015;-66
2022/06/11 04:52:25;;;;;;;19.10;10.50;;;;;;;17.07;68.28;99395.52;105037;1285;107758;-67
2022/06/11 04:54:53;;;;;;;19.30;12.00;;;;;;;17.08;68.45;99394.34;105016;1284;99366;-69
2022/06/11 04:57:22;;;;;;;21.00;10.90;;;;;;;17.09;68.47;99396.90;105064;1285;99437;-68
2022/06/11 04:59:50;;;;;;;17.40;10.30;;;;;;;17.14;68.50;99401.89;105138;1285;112748;-68
2022/06/11 05:02:18;;;;;;;19.40;11.00;;;;;;;17.18;68.71;99406.16;105074;1285;97574;-69
2022/06/11 05:04:46;;;;;;;19.70;11.60;;;;;;;17.22;68.53;99403.94;105103;1285;107906;-68
2022/06/11 05:07:14;;;;;;;20.60;11.40;;;;;;;17.24;68.45;99406.59;105017;1285;99397;-69
2022/06/11 05:09:42;;;;;;;18.20;10.70;;;;;;;17.27;68.56;99409.05;104936;1285;97744;-68
2022/06/11 05:12:11;;;;;;;19.10;11.00;;;;;;;17.30;68.57;99410.54;104929;1285;113355;-69
2022/06/11 05:14:40;;;;;;;18.90;10.50;;;;;;;17.33;68.63;99412.81;104983;1287;99238;-68
2022/06/11 05:17:08;;;;;;;20.10;10.90;;;;;;;17.36;68.94;99414.23;104985;1284;107711;-69
2022/06/11 05:19:36;;;;;;;18.80;10.50;;;;;;;17.39;68.49;99415.38;105080;1285;99247;-71
2022/06/11 05:22:05;;;;;;;18.90;10.40;;;;;;;17.43;68.65;99416.33;105089;1285;99238;-70
2022/06/11 05:24:33;;;;;;;19.80;11.20;;;;;;;17.46;68.63;99415.11;105068;1285;111766;-69
2022/06/11 05:27:07;;;;;;;20.80;10.80;;;;;;;17.49;68.73;99419.90;105028;1285;97836;-69
2022/06/11 05:29:57;;;;;;;19.90;11.20;;;;;;;17.52;68.84;99421.85;104946;1287;107796;-69
2022/06/11 05:32:29;;;;;;;19.60;11.20;;;;;;;17.56;68.77;99424.95;104894;1285;98431;-69
2022/06/11 05:34:58;;;;;;;19.00;11.40;;;;;;;17.58;68.78;99426.86;105145;1285;99258;-68
2022/06/11 05:37:27;;;;;;;20.70;11.70;;;;;;;17.60;68.73;99427.83;105069;1285;112382;-69
2022/06/11 05:39:54;;;;;;;19.90;11.70;;;;;;;17.61;68.80;99427.38;105038;1285;97947;-68
2022/06/11 05:42:24;;;;;;;22.20;11.60;;;;;;;17.62;68.77;99430.52;104998;1285;108408;-69
2022/06/11 05:44:53;;;;;;;20.20;11.70;;;;;;;17.64;68.61;99434.38;105053;1285;99348;-68
2022/06/11 05:47:25;;;;;;;20.60;10.90;;;;;;;17.65;68.69;99433.02;104964;1285;99250;-68
2022/06/11 05:49:56;;;;;;;20.10;11.30;;;;;;;17.67;68.75;99434.95;105065;1285;112791;-68
2022/06/11 05:52:29;;;;;;;19.10;11.90;;;;;;;17.70;68.79;99438.70;105040;1285;99818;-69
2022/06/11 05:54:57;;;;;;;20.50;11.50;;;;;;;17.71;68.85;99439.96;105119;1285;107566;-69
2022/06/11 05:57:27;;;;;;;20.30;11.60;;;;;;;17.74;68.65;99437.55;105038;1285;99212;-69
2022/06/11 06:00:00;;;;;;;19.50;11.30;;;;;;;17.76;68.95;99433.95;104837;1285;98473;-68
2022/06/11 06:02:28;;;;;;;21.80;11.90;;;;;;;17.79;68.74;99438.09;105073;1285;112642;-68
2022/06/11 06:04:57;;;;;;;19.10;10.30;;;;;;;17.81;68.70;99442.77;105059;1285;98991;-71
2022/06/11 06:07:25;;;;;;;19.90;12.00;;;;;;;17.84;68.67;99442.46;105033;1285;107817;-70
2022/06/11 06:09:52;;;;;;;21.30;12.20;;;;;;;17.89;68.65;99441.37;105083;1285;99334;-69
2022/06/11 06:12:20;;;;;;;21.30;12.50;;;;;;;17.90;68.61;99441.56;105124;1285;99326;-69
2022/06/11 06:14:48;;;;;;;22.00;12.40;;;;;;;17.91;68.70;99441.50;105217;1285;112819;-69
2022/06/11 06:17:16;;;;;;;21.50;12.00;;;;;;;17.95;68.70;99441.66;105032;1287;99252;-68
2022/06/11 06:19:59;;;;;;;25.00;12.40;;;;;;;18.00;68.71;99436.69;105145;1285;107788;-70
2022/06/11 06:22:27;;;;;;;20.80;11.90;;;;;;;18.05;68.68;99429.61;105120;1287;99359;-69
2022/06/11 06:24:55;;;;;;;19.90;12.00;;;;;;;18.09;68.61;99430.30;105119;1284;96593;-70
2022/06/11 06:27:23;;;;;;;18.80;11.10;;;;;;;18.13;68.61;99429.46;105142;1285;112728;-70
2022/06/11 06:29:51;;;;;;;19.10;11.30;;;;;;;18.17;68.63;99428.25;105169;1285;99244;-70
2022/06/11 06:32:20;;;;;;;18.20;10.20;;;;;;;18.21;68.71;99428.76;105207;1285;108205;-71
2022/06/11 06:34:48;;;;;;;21.10;12.30;;;;;;;18.25;68.76;99429.02;105106;1285;96648;-69
2022/06/11 06:37:16;;;;;;;21.10;11.30;;;;;;;18.30;68.69;99427.63;105097;1285;99383;-69
2022/06/11 06:39:44;;;;;;;19.20;10.80;;;;;;;18.36;68.78;99423.16;105154;1285;112859;-69
2022/06/11 06:42:12;;;;;;;20.10;11.90;;;;;;;18.40;68.59;99413.04;105104;1285;99267;-70
2022/06/11 06:44:40;;;;;;;20.20;10.90;;;;;;;18.44;68.68;99408.16;105193;1285;107810;-74
2022/06/11 06:47:08;;;;;;;18.70;10.70;;;;;;;18.48;68.70;99397.83;105122;1285;99266;-73
2022/06/11 06:49:36;;;;;;;18.00;10.60;;;;;;;18.52;68.70;99393.35;105095;1285;96552;-73
2022/06/11 06:52:04;;;;;;;21.90;12.10;;;;;;;18.53;68.54;99387.14;105050;1285;112845;-74
2022/06/11 06:54:32;;;;;;;21.60;11.10;;;;;;;18.54;68.53;99386.16;104872;1285;99144;-74
2022/06/11 06:56:59;;;;;;;19.00;10.40;;;;;;;18.55;68.56;99380.07;104974;1285;107857;-75
2022/06/11 06:59:27;;;;;;;18.30;10.40;;;;;;;18.55;68.53;99383.48;104931;1285;96647;-77
2022/06/11 07:01:55;;;;;;;21.10;10.60;;;;;;;18.54;68.47;99378.24;104848;1285;99312;-75
2022/06/11 07:04:23;;;;;;;18.40;10.00;;;;;;;18.53;68.52;99369.16;104711;1285;111563;-75
2022/06/11 07:06:53;;;;;;;16.60;9.30;;;;;;;18.55;68.54;99358.41;104993;1285;97599;-75
2022/06/11 07:09:22;;;;;;;21.60;10.10;;;;;;;18.58;68.44;99351.64;105093;1285;107090;-76
2022/06/11 07:11:50;;;;;;;16.20;9.10;;;;;;;18.59;68.39;99350.56;105121;1285;99360;-78
2022/06/11 07:14:18;;;;;;;16.70;8.90;;;;;;;18.62;68.37;99347.80;105108;1285;99325;-78
2022/06/11 07:16:52;;;;;;;16.10;7.90;;;;;;;18.67;68.30;99344.25;105094;1285;112716;-75
2022/06/11 07:19:26;;;;;;;16.60;8.10;;;;;;;18.75;68.31;99339.47;105077;1285;99335;-79
2022/06/11 07:22:01;;;;;;;13.40;7.30;;;;;;;18.85;68.37;99329.40;104883;1285;108859;-73
2022/06/11 07:24:35;;;;;;;14.80;7.50;;;;;;;19.02;68.00;99323.09;105125;1285;99364;-77
2022/06/11 07:27:11;;;;;;;13.20;6.50;;;;;;;19.12;68.03;99315.57;105122;1285;99388;-76
2022/06/11 07:29:52;;;;;;;9.60;5.90;;;;;;;19.20;68.10;99308.65;105159;1285;112846;-75
2022/06/11 07:32:35;;;;;;;10.80;6.00;;;;;;;19.26;68.14;99302.79;105084;1287;99357;-78
2022/06/11 07:35:08;;;;;;;12.80;6.60;;;;;;;19.32;68.14;99305.04;104891;1287;107514;-75
2022/06/11 07:37:36;;;;;;;15.00;6.10;;;;;;;19.42;68.16;99317.00;104991;1287;99238;-77
2022/06/11 07:40:08;;;;;;;11.20;6.10;;;;;;;19.53;67.94;99329.80;105047;1286;99920;-70
2022/06/11 07:42:36;;;;;;;13.20;6.10;;;;;;;19.63;67.83;99339.22;105034;1287;114714;-75
2022/06/11 07:45:05;;;;;;;10.00;5.70;;;;;;;19.70;67.91;99345.13;105075;1287;99352;-74
2022/06/11 07:50:30;;;;;;;8.00;4.80;;;;;;;19.76;67.80;99351.62;104949;1288;99267;-74
2022/06/11 07:52:59;;;;;;;11.80;4.90;;;;;;;19.83;67.52;99350.52;104801;1288;99413;-75
2022/06/11 07:55:32;;;;;;;11.10;5.10;;;;;;;19.91;67.55;99358.52;104964;1287;112760;-68
2022/06/11 07:58:02;;;;;;;10.20;4.80;;;;;;;20.23;67.09;99350.61;104936;1287;99376;-67
2022/06/11 08:00:39;;;;;;;10.40;5.10;;;;;;;20.78;66.75;99353.80;104952;1287;108521;-68
2022/06/11 08:03:08;;;;;;;9.40;4.80;;;;;;;21.12;67.02;99352.95;104863;1288;97848;-73
2022/06/11 08:05:43;;;;;;;9.30;5.00;;;;;;;21.51;66.69;99357.97;105023;1287;99321;-72
2022/06/11 08:08:15;;;;;;;8.90;4.70;;;;;;;22.36;66.07;99354.35;105028;1287;113436;-73
2022/06/11 08:10:44;;;;;;;8.40;4.40;;;;;;;23.39;65.97;99357.03;105014;1287;99347;-71
2022/06/11 08:13:15;;;;;;;13.00;4.80;;;;;;;24.87;65.26;99362.54;105024;1287;107020;-72
2022/06/11 08:15:49;;;;;;;9.00;4.40;;;;;;;26.05;65.01;99364.61;105017;1287;99293;-72
2022/06/11 08:18:21;;;;;;;6.10;3.20;;;;;;;27.00;64.93;99368.27;104987;1287;97166;-73
2022/06/11 08:20:52;;;;;;;7.40;3.90;;;;;;;27.50;64.94;99365.08;105025;1286;112687;-73
2022/06/11 08:23:24;;;;;;;6.70;3.40;;;;;;;27.86;65.12;99364.05;105062;1287;97247;-73
2022/06/11 08:25:56;;;;;;;8.30;3.60;;;;;;;28.20;64.35;99377.45;105017;1287;107762;-73
2022/06/11 08:28:29;;;;;;;7.20;3.80;;;;;;;28.62;64.03;99373.69;105002;1288;99335;-73
2022/06/11 08:30:57;;;;;;;6.70;3.60;;;;;;;28.94;63.63;99374.91;105131;1287;99179;-73
2022/06/11 08:33:24;;;;;;;8.30;3.40;;;;;;;29.10;63.52;99376.83;105099;1287;112846;-72
2022/06/11 08:35:52;;;;;;;4.30;3.00;;;;;;;29.84;62.84;99376.26;104855;1288;99584;-72
2022/06/11 08:38:20;;;;;;;4.60;2.70;;;;;;;30.51;62.74;99370.01;105158;1288;107712;-73
2022/06/11 08:40:53;;;;;;;7.90;3.20;;;;;;;31.04;61.81;99364.32;104986;1287;99206;-69
2022/06/11 08:43:30;;;;;;;13.40;3.00;;;;;;;31.47;61.69;99369.23;104824;1288;99190;-72
2022/06/11 08:46:07;;;;;;;6.20;2.90;;;;;;;31.77;61.02;99362.66;104836;1287;113082;-72
2022/06/11 08:49:06;;;;;;;6.40;3.00;;;;;;;32.21;60.43;99364.21;104930;1287;99712;-67
2022/06/11 08:51:50;;;;;;;5.20;2.60;;;;;;;32.54;60.06;99361.55;104994;1287;108594;-67
2022/06/11 08:54:29;;;;;;;5.60;2.50;;;;;;;32.30;59.97;99364.82;104909;1287;96659;-67
2022/06/11 08:57:18;;;;;;;3.90;2.50;;;;;;;31.96;59.60;99366.51;105054;1288;99251;-67
2022/06/11 09:00:12;;;;;;;4.70;2.80;;;;;;;31.41;59.00;99370.87;104705;1286;113414;-67
2022/06/11 09:03:13;;;;;;;8.20;2.80;;;;;;;30.75;58.95;99375.67;105086;1287;99751;-67
2022/06/11 09:05:59;;;;;;;9.50;2.80;;;;;;;30.15;58.33;99377.66;104834;1287;107885;-67
2022/06/11 09:08:57;;;;;;;4.70;3.10;;;;;;;29.71;58.22;99377.60;104790;1287;99974;-67
2022/06/11 09:11:37;;;;;;;4.30;2.80;;;;;;;29.29;57.77;99378.23;104889;1287;99305;-68
2022/06/11 09:14:30;;;;;;;4.40;2.60;;;;;;;28.93;57.30;99375.05;105046;1287;113369;-68
2022/06/11 09:17:20;;;;;;;6.10;2.80;;;;;;;28.66;57.07;99373.48;104994;1287;99130;-68
2022/06/11 09:19:57;;;;;;;7.90;2.90;;;;;;;28.45;56.79;99375.50;105048;1287;107921;-68
2022/06/11 09:22:53;;;;;;;4.70;3.10;;;;;;;28.04;56.02;99374.42;104993;1286;99331;-69
2022/06/11 09:25:45;;;;;;;5.10;2.80;;;;;;;27.50;55.64;99377.86;104948;1287;99225;-67
2022/06/11 09:28:42;;;;;;;7.40;2.70;;;;;;;26.99;55.07;99377.15;105111;1287;113395;-67
2022/06/11 09:31:40;;;;;;;4.50;2.70;;;;;;;26.62;55.00;99376.67;105212;1287;99252;-66
2022/06/11 09:34:17;;;;;;;3.90;2.60;;;;;;;26.45;55.21;99374.98;105151;1287;108468;-66
2022/06/11 09:37:13;;;;;;;6.20;2.70;;;;;;;26.42;54.92;99372.13;105036;1287;98121;-67
2022/06/11 09:39:56;;;;;;;5.50;3.10;;;;;;;26.41;54.53;99368.31;105084;1287;98941;-68
2022/06/11 09:42:42;;;;;;;5.50;2.70;;;;;;;26.31;54.19;99368.84;104794;1288;113384;-67
2022/06/11 09:45:23;;;;;;;4.80;3.00;;;;;;;26.14;54.06;99368.89;104859;1287;97799;-68
2022/06/11 09:48:15;;;;;;;5.10;2.60;;;;;;;25.93;54.19;99372.11;105230;1287;106223;-65
2022/06/11 09:51:04;;;;;;;4.80;2.80;;;;;;;25.79;53.87;99371.70;105149;1287;99341;-66
2022/06/11 09:54:10;;;;;;;6.90;3.00;;;;;;;25.77;53.64;99369.71;104809;1288;99260;-67
2022/06/11 09:56:53;;;;;;;6.90;3.10;;;;;;;25.99;53.70;99369.67;104921;1287;113849;-68
2022/06/11 09:59:35;;;;;;;8.20;3.00;;;;;;;26.20;53.31;99366.18;105077;1287;99270;-67
2022/06/11 10:02:06;;;;;;;8.40;2.80;;;;;;;26.34;53.26;99368.51;105266;1287;106274;-67
2022/06/11 10:04:40;;;;;;;7.00;3.20;;;;;;;26.49;53.29;99366.27;105145;1288;99305;-68
2022/06/11 10:07:24;;;;;;;5.80;3.00;;;;;;;26.64;53.18;99361.23;105115;1287;100988;-67
2022/06/11 10:10:25;;;;;;;4.20;2.80;;;;;;;26.61;52.76;99366.83;105080;1288;112817;-68
2022/06/11 10:13:00;;;;;;;7.80;3.30;;;;;;;26.54;52.71;99365.77;104806;1287;99291;-67
2022/06/11 10:15:33;;;;;;;6.30;3.20;;;;;;;26.37;52.35;99365.27;105066;1287;108590;-68
2022/06/11 10:18:20;;;;;;;4.60;3.10;;;;;;;26.21;52.16;99366.52;105039;1287;99249;-66
2022/06/11 10:21:03;;;;;;;3.70;2.90;;;;;;;26.04;52.36;99366.83;104851;1287;98574;-67
2022/06/11 10:23:35;;;;;;;5.70;2.90;;;;;;;25.90;52.05;99369.21;104852;1287;113404;-68
2022/06/11 10:26:10;;;;;;;7.20;3.10;;;;;;;25.89;52.00;99364.63;105073;1287;99256;-66
2022/06/11 10:28:58;;;;;;;4.70;2.90;;;;;;;25.83;52.11;99369.07;104878;1288;108613;-67
2022/06/11 10:31:35;;;;;;;4.60;3.10;;;;;;;25.79;51.82;99371.20;105001;1287;96641;-67
2022/06/11 10:34:15;;;;;;;5.10;3.30;;;;;;;25.79;51.81;99368.13;104621;1286;99358;-68
2022/06/11 10:36:51;;;;;;;4.40;3.00;;;;;;;25.74;51.70;99362.29;104970;1286;112803;-67
2022/06/11 10:39:41;;;;;;;7.90;3.10;;;;;;;25.63;51.59;99363.80;105092;1287;100605;-68
2022/06/11 10:42:16;;;;;;;5.50;3.20;;;;;;;25.51;51.42;99368.13;105011;1288;107783;-72
2022/06/11 10:44:49;;;;;;;8.50;3.00;;;;;;;25.45;51.26;99366.17;104975;1286;99219;-70
2022/06/11 10:47:19;;;;;;;;;;;;;;;25.28;51.34;99362.55;104936;1287;96733;-72
2022/06/11 10:50:09;;;;;;;5.20;2.90;;;;;;;25.06;51.20;99366.98;104961;1287;113924;-70
2022/06/11 10:53:04;;;;;;;12.80;6.30;;;;;;;24.99;51.27;99363.04;104993;1287;99947;-69
2022/06/11 10:55:44;;;;;;;9.20;4.30;;;;;;;24.93;51.21;99365.39;104806;1287;108658;-69
2022/06/11 10:58:34;;;;;;;7.10;3.60;;;;;;;24.93;51.09;99362.16;105927;1286;97741;-69
2022/06/11 11:01:06;;;;;;;6.50;3.00;;;;;;;24.89;50.76;99355.89;104856;1287;99267;-69
2022/06/11 11:03:44;;;;;;;5.90;3.10;;;;;;;24.83;50.88;99358.70;104873;1287;112664;-69
2022/06/11 11:06:26;;;;;;;5.50;3.30;;;;;;;24.81;50.94;99356.02;104967;1287;99353;-70
2022/06/11 11:08:58;;;;;;;6.20;3.00;;;;;;;24.74;50.75;99352.63;104894;1287;108854;-69
2022/06/11 11:11:45;;;;;;;4.50;2.80;;;;;;;24.70;50.90;99347.77;104685;1287;99292;-69
2022/06/11 11:14:19;;;;;;;5.40;3.10;;;;;;;24.67;50.71;99348.91;104895;1287;99313;-69
2022/06/11 11:16:52;;;;;;;4.10;3.10;;;;;;;24.57;50.55;99349.13;104871;1287;112775;-68
2022/06/11 11:19:33;;;;;;;6.20;3.30;;;;;;;24.52;50.57;99343.86;104872;1287;99257;-68
2022/06/11 11:22:04;;;;;;;3.80;3.00;;;;;;;24.51;50.63;99336.20;104846;1287;108466;-69
2022/06/11 11:24:53;;;;;;;5.40;3.00;;;;;;;24.55;50.51;99338.73;104796;1287;99285;-68
2022/06/11 11:27:26;;;;;;;4.50;3.10;;;;;;;24.51;50.39;99336.73;104864;1287;96639;-68
2022/06/11 11:30:19;;;;;;;4.90;2.70;;;;;;;24.42;50.17;99336.84;104891;1287;112811;-68
2022/06/11 11:32:48;;;;;;;4.20;2.80;;;;;;;24.33;50.20;99331.28;104906;1287;99243;-69
2022/06/11 11:35:22;;;;;;;4.00;3.00;;;;;;;24.28;50.34;99329.20;104975;1287;107765;-68
2022/06/11 11:37:59;;;;;;;6.70;3.40;;;;;;;24.30;50.31;99327.98;105017;1287;97675;-68
2022/06/11 11:40:47;;;;;;;5.30;2.90;;;;;;;24.33;50.33;99330.22;104879;1287;96753;-69
2022/06/11 11:43:17;;;;;;;3.40;2.90;;;;;;;24.33;50.13;99335.74;104831;1287;113505;-69
2022/06/11 11:45:59;;;;;;;5.40;2.80;;;;;;;24.33;50.17;99338.38;104890;1287;99284;-69
2022/06/11 11:48:56;;;;;;;5.70;2.90;;;;;;;24.32;50.23;99332.27;104881;1287;107782;-68
2022/06/11 11:51:32;;;;;;;8.50;2.80;;;;;;;24.35;50.16;99333.23;105036;1287;100048;-68